sensor_id;sensor_type;location;lat;lon;timestamp;temperature;humidity
32334;DHT22;18810;53.040;8.850;2023-11-22T00:02:21;4.30;99.90
32334;DHT22;18810;53.040;8.850;2023-11-22T00:04:46;4.30;99.90
32334;DHT22;18810;53.040;8.850;2023-11-22T00:07:12;4.30;99.90
32334;DHT22;18810;53.040;8.850;2023-11-22T00:09:38;4.20;99.90
32334;DHT22;18810;53.040;8.850;2023-11-22T00:12:04;4.30;99.90
32334;DHT22;18810;53.040;8.850;2023-11-22T00:14:30;4.30;99.90
32334;DHT22;18810;53.040;8.850;2023-11-22T00:16:56;4.30;99.90
32334;DHT22;18810;53.040;8.850;2023-11-22T00:19:22;4.20;99.90
32334;DHT22;18810;53.040;8.850;2023-11-22T00:21:49;4.20;99.90
32334;DHT22;18810;53.040;8.850;2023-11-22T00:24:15;4.20;99.90
32334;DHT22;18810;53.040;8.850;2023-11-22T00:26:40;4.10;99.90
32334;DHT22;18810;53.040;8.850;2023-11-22T00:29:07;4.00;99.90
32334;DHT22;18810;53.040;8.850;2023-11-22T00:31:33;4.00;99.90
32334;DHT22;18810;53.040;8.850;2023-11-22T00:33:59;4.00;99.90
32334;DHT22;18810;53.040;8.850;2023-11-22T00:36:25;4.00;99.90
32334;DHT22;18810;53.040;8.850;2023-11-22T00:38:51;4.00;99.90
32334;DHT22;18810;53.040;8.850;2023-11-22T00:41:17;3.90;99.90
32334;DHT22;18810;53.040;8.850;2023-11-22T00:43:42;3.90;99.90
32334;DHT22;18810;53.040;8.850;2023-11-22T00:46:08;3.90;99.90
32334;DHT22;18810;53.040;8.850;2023-11-22T00:48:34;3.90;99.90
32334;DHT22;18810;53.040;8.850;2023-11-22T00:51:00;3.90;99.90
32334;DHT22;18810;53.040;8.850;2023-11-22T00:53:25;3.80;99.90
32334;DHT22;18810;53.040;8.850;2023-11-22T00:55:51;3.80;99.90
32334;DHT22;18810;53.040;8.850;2023-11-22T00:58:17;3.80;99.90
32334;DHT22;18810;53.040;8.850;2023-11-22T01:00:42;3.70;99.90
32334;DHT22;18810;53.040;8.850;2023-11-22T01:03:08;3.70;99.90
32334;DHT22;18810;53.040;8.850;2023-11-22T01:05:37;3.60;99.90
32334;DHT22;18810;53.040;8.850;2023-11-22T01:08:03;3.60;99.90
32334;DHT22;18810;53.040;8.850;2023-11-22T01:10:29;3.50;99.90
32334;DHT22;18810;53.040;8.850;2023-11-22T01:12:55;3.50;99.90
32334;DHT22;18810;53.040;8.850;2023-11-22T01:15:21;3.40;99.90
32334;DHT22;18810;53.040;8.850;2023-11-22T01:17:47;3.30;99.90
32334;DHT22;18810;53.040;8.850;2023-11-22T01:20:12;3.40;99.90
32334;DHT22;18810;53.040;8.850;2023-11-22T01:22:39;3.30;99.90
32334;DHT22;18810;53.040;8.850;2023-11-22T01:25:05;3.30;99.90
32334;DHT22;18810;53.040;8.850;2023-11-22T01:27:31;3.30;99.90
32334;DHT22;18810;53.040;8.850;2023-11-22T01:29:57;3.30;99.90
32334;DHT22;18810;53.040;8.850;2023-11-22T01:32:22;3.20;99.90
32334;DHT22;18810;53.040;8.850;2023-11-22T01:34:48;3.10;99.90
32334;DHT22;18810;53.040;8.850;2023-11-22T01:37:14;3.00;99.90
32334;DHT22;18810;53.040;8.850;2023-11-22T01:39:40;3.00;99.90
32334;DHT22;18810;53.040;8.850;2023-11-22T01:42:08;3.00;99.90
32334;DHT22;18810;53.040;8.850;2023-11-22T01:44:35;2.90;99.90
32334;DHT22;18810;53.040;8.850;2023-11-22T01:47:01;2.90;99.90
32334;DHT22;18810;53.040;8.850;2023-11-22T01:49:29;2.90;99.90
32334;DHT22;18810;53.040;8.850;2023-11-22T01:51:55;2.80;99.90
32334;DHT22;18810;53.040;8.850;2023-11-22T01:54:22;2.80;99.90
32334;DHT22;18810;53.040;8.850;2023-11-22T01:56:48;2.80;99.90
32334;DHT22;18810;53.040;8.850;2023-11-22T01:59:15;2.70;99.90
32334;DHT22;18810;53.040;8.850;2023-11-22T02:01:43;2.70;99.90
32334;DHT22;18810;53.040;8.850;2023-11-22T02:04:08;2.70;99.90
32334;DHT22;18810;53.040;8.850;2023-11-22T02:06:35;2.70;99.90
32334;DHT22;18810;53.040;8.850;2023-11-22T02:09:01;2.70;99.90
32334;DHT22;18810;53.040;8.850;2023-11-22T02:11:26;2.60;99.90
32334;DHT22;18810;53.040;8.850;2023-11-22T02:13:52;2.50;99.90
32334;DHT22;18810;53.040;8.850;2023-11-22T02:16:19;2.50;99.90
32334;DHT22;18810;53.040;8.850;2023-11-22T02:18:46;2.50;99.90
32334;DHT22;18810;53.040;8.850;2023-11-22T02:21:12;2.40;99.90
32334;DHT22;18810;53.040;8.850;2023-11-22T02:23:38;2.40;99.90
32334;DHT22;18810;53.040;8.850;2023-11-22T02:26:04;2.40;99.90
32334;DHT22;18810;53.040;8.850;2023-11-22T02:28:30;2.40;99.90
32334;DHT22;18810;53.040;8.850;2023-11-22T02:30:55;2.40;99.90
32334;DHT22;18810;53.040;8.850;2023-11-22T02:33:21;2.30;99.90
32334;DHT22;18810;53.040;8.850;2023-11-22T02:35:47;2.40;99.90
32334;DHT22;18810;53.040;8.850;2023-11-22T02:38:12;2.30;99.90
32334;DHT22;18810;53.040;8.850;2023-11-22T02:40:38;2.30;99.90
32334;DHT22;18810;53.040;8.850;2023-11-22T02:43:04;2.30;99.90
32334;DHT22;18810;53.040;8.850;2023-11-22T02:45:34;2.30;99.90
32334;DHT22;18810;53.040;8.850;2023-11-22T02:48:00;2.30;99.90
32334;DHT22;18810;53.040;8.850;2023-11-22T02:50:29;2.30;99.90
32334;DHT22;18810;53.040;8.850;2023-11-22T02:52:58;2.30;99.90
32334;DHT22;18810;53.040;8.850;2023-11-22T02:55:24;2.20;99.90
32334;DHT22;18810;53.040;8.850;2023-11-22T02:57:50;2.20;99.90
32334;DHT22;18810;53.040;8.850;2023-11-22T03:00:17;2.20;99.90
32334;DHT22;18810;53.040;8.850;2023-11-22T03:02:45;2.10;99.90
32334;DHT22;18810;53.040;8.850;2023-11-22T03:05:12;2.10;99.90
32334;DHT22;18810;53.040;8.850;2023-11-22T03:07:42;2.10;99.90
32334;DHT22;18810;53.040;8.850;2023-11-22T03:10:08;2.10;99.90
32334;DHT22;18810;53.040;8.850;2023-11-22T03:12:34;2.00;99.90
32334;DHT22;18810;53.040;8.850;2023-11-22T03:15:00;2.10;99.90
32334;DHT22;18810;53.040;8.850;2023-11-22T03:17:27;1.40;99.90
32334;DHT22;18810;53.040;8.850;2023-11-22T03:19:54;2.10;99.90
32334;DHT22;18810;53.040;8.850;2023-11-22T03:22:23;2.10;99.90
32334;DHT22;18810;53.040;8.850;2023-11-22T03:24:49;2.10;99.90
32334;DHT22;18810;53.040;8.850;2023-11-22T03:27:15;2.20;99.90
32334;DHT22;18810;53.040;8.850;2023-11-22T03:29:41;2.20;99.90
32334;DHT22;18810;53.040;8.850;2023-11-22T03:32:06;2.20;99.90
32334;DHT22;18810;53.040;8.850;2023-11-22T03:34:32;2.20;99.90
32334;DHT22;18810;53.040;8.850;2023-11-22T03:36:58;2.20;99.90
32334;DHT22;18810;53.040;8.850;2023-11-22T03:39:24;2.10;99.90
32334;DHT22;18810;53.040;8.850;2023-11-22T03:41:50;2.10;99.90
32334;DHT22;18810;53.040;8.850;2023-11-22T03:44:16;2.00;99.90
32334;DHT22;18810;53.040;8.850;2023-11-22T03:46:42;2.00;99.90
32334;DHT22;18810;53.040;8.850;2023-11-22T03:49:08;2.00;99.90
32334;DHT22;18810;53.040;8.850;2023-11-22T03:51:34;1.90;99.90
32334;DHT22;18810;53.040;8.850;2023-11-22T03:54:01;1.90;99.90
32334;DHT22;18810;53.040;8.850;2023-11-22T03:56:28;1.90;99.90
32334;DHT22;18810;53.040;8.850;2023-11-22T03:58:54;1.90;99.90
32334;DHT22;18810;53.040;8.850;2023-11-22T04:01:20;1.80;99.90
32334;DHT22;18810;53.040;8.850;2023-11-22T04:03:46;1.80;99.90
32334;DHT22;18810;53.040;8.850;2023-11-22T04:06:14;1.70;99.90
32334;DHT22;18810;53.040;8.850;2023-11-22T04:08:42;1.70;99.90
32334;DHT22;18810;53.040;8.850;2023-11-22T04:11:09;1.60;99.90
32334;DHT22;18810;53.040;8.850;2023-11-22T04:13:35;1.50;99.90
32334;DHT22;18810;53.040;8.850;2023-11-22T04:16:01;1.50;99.90
32334;DHT22;18810;53.040;8.850;2023-11-22T04:18:27;1.50;99.90
32334;DHT22;18810;53.040;8.850;2023-11-22T04:20:53;1.40;99.90
32334;DHT22;18810;53.040;8.850;2023-11-22T04:23:18;1.40;99.90
32334;DHT22;18810;53.040;8.850;2023-11-22T04:25:44;1.40;99.90
32334;DHT22;18810;53.040;8.850;2023-11-22T04:28:10;1.40;99.90
32334;DHT22;18810;53.040;8.850;2023-11-22T04:30:36;1.40;99.90
32334;DHT22;18810;53.040;8.850;2023-11-22T04:33:01;1.40;99.90
32334;DHT22;18810;53.040;8.850;2023-11-22T04:35:27;1.40;99.90
32334;DHT22;18810;53.040;8.850;2023-11-22T04:37:53;1.40;99.90
32334;DHT22;18810;53.040;8.850;2023-11-22T04:40:20;1.40;99.90
32334;DHT22;18810;53.040;8.850;2023-11-22T04:42:47;1.30;99.90
32334;DHT22;18810;53.040;8.850;2023-11-22T04:45:13;1.40;99.90
32334;DHT22;18810;53.040;8.850;2023-11-22T04:47:39;1.40;99.90
32334;DHT22;18810;53.040;8.850;2023-11-22T04:50:05;1.50;99.90
32334;DHT22;18810;53.040;8.850;2023-11-22T04:52:32;1.50;99.90
32334;DHT22;18810;53.040;8.850;2023-11-22T04:54:58;1.50;99.90
32334;DHT22;18810;53.040;8.850;2023-11-22T04:57:23;1.60;99.90
32334;DHT22;18810;53.040;8.850;2023-11-22T04:59:49;1.50;99.90
32334;DHT22;18810;53.040;8.850;2023-11-22T05:02:15;1.50;99.90
32334;DHT22;18810;53.040;8.850;2023-11-22T05:04:41;1.40;99.90
32334;DHT22;18810;53.040;8.850;2023-11-22T05:07:08;1.40;99.90
32334;DHT22;18810;53.040;8.850;2023-11-22T05:09:34;1.30;99.90
32334;DHT22;18810;53.040;8.850;2023-11-22T05:12:00;1.30;99.90
32334;DHT22;18810;53.040;8.850;2023-11-22T05:14:25;1.30;99.90
32334;DHT22;18810;53.040;8.850;2023-11-22T05:16:52;1.30;99.90
32334;DHT22;18810;53.040;8.850;2023-11-22T05:19:18;1.20;99.90
32334;DHT22;18810;53.040;8.850;2023-11-22T05:21:44;1.20;99.90
32334;DHT22;18810;53.040;8.850;2023-11-22T05:24:10;1.10;99.90
32334;DHT22;18810;53.040;8.850;2023-11-22T05:26:35;1.10;99.90
32334;DHT22;18810;53.040;8.850;2023-11-22T05:29:01;1.00;99.90
32334;DHT22;18810;53.040;8.850;2023-11-22T05:31:30;1.00;99.90
32334;DHT22;18810;53.040;8.850;2023-11-22T05:33:55;1.00;99.90
32334;DHT22;18810;53.040;8.850;2023-11-22T05:36:21;1.00;99.90
32334;DHT22;18810;53.040;8.850;2023-11-22T05:38:47;0.90;99.90
32334;DHT22;18810;53.040;8.850;2023-11-22T05:41:12;0.90;99.90
32334;DHT22;18810;53.040;8.850;2023-11-22T05:43:38;0.80;99.90
32334;DHT22;18810;53.040;8.850;2023-11-22T05:46:04;0.80;99.90
32334;DHT22;18810;53.040;8.850;2023-11-22T05:48:30;0.80;99.90
32334;DHT22;18810;53.040;8.850;2023-11-22T05:50:56;0.80;99.90
32334;DHT22;18810;53.040;8.850;2023-11-22T05:53:21;0.70;99.90
32334;DHT22;18810;53.040;8.850;2023-11-22T05:55:48;0.70;99.90
32334;DHT22;18810;53.040;8.850;2023-11-22T05:58:14;0.70;99.90
32334;DHT22;18810;53.040;8.850;2023-11-22T06:00:46;0.70;99.90
32334;DHT22;18810;53.040;8.850;2023-11-22T06:03:12;0.70;99.90
32334;DHT22;18810;53.040;8.850;2023-11-22T06:05:39;0.70;99.90
32334;DHT22;18810;53.040;8.850;2023-11-22T06:08:05;0.60;99.90
32334;DHT22;18810;53.040;8.850;2023-11-22T06:10:30;0.70;99.90
32334;DHT22;18810;53.040;8.850;2023-11-22T06:12:56;0.70;99.90
32334;DHT22;18810;53.040;8.850;2023-11-22T06:15:22;0.70;99.90
32334;DHT22;18810;53.040;8.850;2023-11-22T06:17:48;0.70;99.90
32334;DHT22;18810;53.040;8.850;2023-11-22T06:20:15;0.70;99.90
32334;DHT22;18810;53.040;8.850;2023-11-22T06:22:41;0.50;99.90
32334;DHT22;18810;53.040;8.850;2023-11-22T06:25:11;0.60;99.90
32334;DHT22;18810;53.040;8.850;2023-11-22T06:27:38;0.60;99.90
32334;DHT22;18810;53.040;8.850;2023-11-22T06:30:04;0.60;99.90
32334;DHT22;18810;53.040;8.850;2023-11-22T06:32:32;0.60;99.90
32334;DHT22;18810;53.040;8.850;2023-11-22T06:34:58;0.60;99.90
32334;DHT22;18810;53.040;8.850;2023-11-22T06:37:23;0.60;99.90
32334;DHT22;18810;53.040;8.850;2023-11-22T06:39:49;0.70;99.90
32334;DHT22;18810;53.040;8.850;2023-11-22T06:42:16;0.70;99.90
32334;DHT22;18810;53.040;8.850;2023-11-22T06:44:42;0.80;99.90
32334;DHT22;18810;53.040;8.850;2023-11-22T06:47:08;0.80;99.90
32334;DHT22;18810;53.040;8.850;2023-11-22T06:49:34;0.80;99.90
32334;DHT22;18810;53.040;8.850;2023-11-22T06:52:00;0.80;99.90
32334;DHT22;18810;53.040;8.850;2023-11-22T06:54:26;0.80;99.90
32334;DHT22;18810;53.040;8.850;2023-11-22T06:56:52;0.80;99.90
32334;DHT22;18810;53.040;8.850;2023-11-22T06:59:18;1.00;99.90
32334;DHT22;18810;53.040;8.850;2023-11-22T07:01:44;1.00;99.90
32334;DHT22;18810;53.040;8.850;2023-11-22T07:04:10;1.00;99.90
32334;DHT22;18810;53.040;8.850;2023-11-22T07:06:37;1.10;99.90
32334;DHT22;18810;53.040;8.850;2023-11-22T07:09:04;1.10;99.90
32334;DHT22;18810;53.040;8.850;2023-11-22T07:11:30;1.20;99.90
32334;DHT22;18810;53.040;8.850;2023-11-22T07:13:56;1.20;99.90
32334;DHT22;18810;53.040;8.850;2023-11-22T07:16:23;1.30;99.90
32334;DHT22;18810;53.040;8.850;2023-11-22T07:18:50;1.30;99.90
32334;DHT22;18810;53.040;8.850;2023-11-22T07:21:16;1.30;99.90
32334;DHT22;18810;53.040;8.850;2023-11-22T07:23:46;1.30;99.90
32334;DHT22;18810;53.040;8.850;2023-11-22T07:26:12;1.40;99.90
32334;DHT22;18810;53.040;8.850;2023-11-22T07:28:41;1.50;99.90
32334;DHT22;18810;53.040;8.850;2023-11-22T07:31:08;1.50;99.90
32334;DHT22;18810;53.040;8.850;2023-11-22T07:33:34;1.50;99.90
32334;DHT22;18810;53.040;8.850;2023-11-22T07:36:01;1.50;99.90
32334;DHT22;18810;53.040;8.850;2023-11-22T07:38:28;1.50;99.90
32334;DHT22;18810;53.040;8.850;2023-11-22T07:40:54;1.50;99.90
32334;DHT22;18810;53.040;8.850;2023-11-22T07:43:21;1.60;99.90
32334;DHT22;18810;53.040;8.850;2023-11-22T07:45:47;1.60;99.90
32334;DHT22;18810;53.040;8.850;2023-11-22T07:48:14;1.60;99.90
32334;DHT22;18810;53.040;8.850;2023-11-22T07:50:40;1.70;99.90
32334;DHT22;18810;53.040;8.850;2023-11-22T07:53:09;1.70;99.90
32334;DHT22;18810;53.040;8.850;2023-11-22T07:55:40;1.80;99.90
32334;DHT22;18810;53.040;8.850;2023-11-22T07:58:07;1.80;99.90
32334;DHT22;18810;53.040;8.850;2023-11-22T08:00:33;1.90;99.90
32334;DHT22;18810;53.040;8.850;2023-11-22T08:03:00;2.00;99.90
32334;DHT22;18810;53.040;8.850;2023-11-22T08:05:32;2.00;99.90
32334;DHT22;18810;53.040;8.850;2023-11-22T08:08:05;2.10;99.90
32334;DHT22;18810;53.040;8.850;2023-11-22T08:10:36;2.10;99.90
32334;DHT22;18810;53.040;8.850;2023-11-22T08:13:03;2.30;99.90
32334;DHT22;18810;53.040;8.850;2023-11-22T08:15:29;2.40;99.90
32334;DHT22;18810;53.040;8.850;2023-11-22T08:17:57;2.40;99.90
32334;DHT22;18810;53.040;8.850;2023-11-22T08:20:24;2.40;99.90
32334;DHT22;18810;53.040;8.850;2023-11-22T08:22:51;2.50;99.90
32334;DHT22;18810;53.040;8.850;2023-11-22T08:25:17;2.60;99.90
32334;DHT22;18810;53.040;8.850;2023-11-22T08:27:43;2.70;99.90
32334;DHT22;18810;53.040;8.850;2023-11-22T08:30:09;2.80;99.90
32334;DHT22;18810;53.040;8.850;2023-11-22T08:32:45;2.70;99.90
32334;DHT22;18810;53.040;8.850;2023-11-22T08:35:20;2.80;99.90
32334;DHT22;18810;53.040;8.850;2023-11-22T08:37:48;2.80;99.90
32334;DHT22;18810;53.040;8.850;2023-11-22T08:40:16;2.80;99.90
32334;DHT22;18810;53.040;8.850;2023-11-22T08:42:46;2.90;99.90
32334;DHT22;18810;53.040;8.850;2023-11-22T08:45:12;2.90;99.90
32334;DHT22;18810;53.040;8.850;2023-11-22T08:47:41;2.90;99.90
32334;DHT22;18810;53.040;8.850;2023-11-22T08:50:08;2.90;99.90
32334;DHT22;18810;53.040;8.850;2023-11-22T08:52:39;2.90;99.90
32334;DHT22;18810;53.040;8.850;2023-11-22T08:55:07;2.90;99.90
32334;DHT22;18810;53.040;8.850;2023-11-22T08:57:35;3.00;99.90
32334;DHT22;18810;53.040;8.850;2023-11-22T09:00:03;3.10;99.90
32334;DHT22;18810;53.040;8.850;2023-11-22T09:02:34;3.10;99.90
32334;DHT22;18810;53.040;8.850;2023-11-22T09:05:02;3.10;99.90
32334;DHT22;18810;53.040;8.850;2023-11-22T09:07:31;3.20;99.90
32334;DHT22;18810;53.040;8.850;2023-11-22T09:09:56;3.30;99.90
32334;DHT22;18810;53.040;8.850;2023-11-22T09:12:23;3.30;99.90
32334;DHT22;18810;53.040;8.850;2023-11-22T09:14:49;3.40;99.90
32334;DHT22;18810;53.040;8.850;2023-11-22T09:17:15;3.30;99.90
32334;DHT22;18810;53.040;8.850;2023-11-22T09:19:40;3.30;99.90
32334;DHT22;18810;53.040;8.850;2023-11-22T09:22:06;3.30;99.90
32334;DHT22;18810;53.040;8.850;2023-11-22T09:24:32;3.40;99.90
32334;DHT22;18810;53.040;8.850;2023-11-22T09:26:59;3.50;99.90
32334;DHT22;18810;53.040;8.850;2023-11-22T09:29:26;3.50;99.90
32334;DHT22;18810;53.040;8.850;2023-11-22T09:31:52;3.50;99.90
32334;DHT22;18810;53.040;8.850;2023-11-22T09:34:18;3.70;99.90
32334;DHT22;18810;53.040;8.850;2023-11-22T09:36:43;3.70;99.90
32334;DHT22;18810;53.040;8.850;2023-11-22T09:39:09;3.70;99.90
32334;DHT22;18810;53.040;8.850;2023-11-22T09:41:36;3.70;99.90
32334;DHT22;18810;53.040;8.850;2023-11-22T09:44:01;3.70;99.90
32334;DHT22;18810;53.040;8.850;2023-11-22T09:46:27;3.80;99.90
32334;DHT22;18810;53.040;8.850;2023-11-22T09:48:56;3.80;99.90
32334;DHT22;18810;53.040;8.850;2023-11-22T09:51:29;4.00;99.90
32334;DHT22;18810;53.040;8.850;2023-11-22T09:53:59;4.10;99.90
32334;DHT22;18810;53.040;8.850;2023-11-22T09:56:26;4.10;99.90
32334;DHT22;18810;53.040;8.850;2023-11-22T09:58:54;4.20;99.90
32334;DHT22;18810;53.040;8.850;2023-11-22T10:01:22;4.30;99.90
32334;DHT22;18810;53.040;8.850;2023-11-22T10:03:48;4.30;99.90
32334;DHT22;18810;53.040;8.850;2023-11-22T10:06:14;4.50;99.90
32334;DHT22;18810;53.040;8.850;2023-11-22T10:08:43;4.50;99.90
32334;DHT22;18810;53.040;8.850;2023-11-22T10:11:16;4.50;99.90
32334;DHT22;18810;53.040;8.850;2023-11-22T10:13:51;4.60;99.90
32334;DHT22;18810;53.040;8.850;2023-11-22T10:16:18;4.70;99.90
32334;DHT22;18810;53.040;8.850;2023-11-22T10:18:46;4.80;99.90
32334;DHT22;18810;53.040;8.850;2023-11-22T10:21:28;4.80;99.90
32334;DHT22;18810;53.040;8.850;2023-11-22T10:24:04;4.80;99.90
32334;DHT22;18810;53.040;8.850;2023-11-22T10:26:35;4.70;99.90
32334;DHT22;18810;53.040;8.850;2023-11-22T10:29:01;4.70;99.90
32334;DHT22;18810;53.040;8.850;2023-11-22T10:31:28;4.80;99.90
32334;DHT22;18810;53.040;8.850;2023-11-22T10:33:54;4.90;99.90
32334;DHT22;18810;53.040;8.850;2023-11-22T10:36:23;5.00;99.90
32334;DHT22;18810;53.040;8.850;2023-11-22T10:38:49;5.10;99.90
32334;DHT22;18810;53.040;8.850;2023-11-22T10:41:16;4.90;99.90
32334;DHT22;18810;53.040;8.850;2023-11-22T10:43:42;4.90;99.90
32334;DHT22;18810;53.040;8.850;2023-11-22T10:46:10;5.00;99.90
32334;DHT22;18810;53.040;8.850;2023-11-22T10:48:38;4.90;99.90
32334;DHT22;18810;53.040;8.850;2023-11-22T10:51:04;5.00;99.90
32334;DHT22;18810;53.040;8.850;2023-11-22T10:53:35;5.10;99.90
32334;DHT22;18810;53.040;8.850;2023-11-22T10:56:03;5.20;99.90
32334;DHT22;18810;53.040;8.850;2023-11-22T10:58:32;5.30;99.90
32334;DHT22;18810;53.040;8.850;2023-11-22T11:00:58;5.20;99.90
32334;DHT22;18810;53.040;8.850;2023-11-22T11:03:28;5.20;99.90
32334;DHT22;18810;53.040;8.850;2023-11-22T11:06:04;5.30;99.90
32334;DHT22;18810;53.040;8.850;2023-11-22T11:08:33;5.20;99.90
32334;DHT22;18810;53.040;8.850;2023-11-22T11:11:04;5.20;99.90
32334;DHT22;18810;53.040;8.850;2023-11-22T11:13:31;5.10;99.90
32334;DHT22;18810;53.040;8.850;2023-11-22T11:15:58;5.20;99.90
32334;DHT22;18810;53.040;8.850;2023-11-22T11:18:25;5.20;99.90
32334;DHT22;18810;53.040;8.850;2023-11-22T11:20:57;5.20;99.90
32334;DHT22;18810;53.040;8.850;2023-11-22T11:23:27;5.40;99.90
32334;DHT22;18810;53.040;8.850;2023-11-22T11:25:58;5.60;99.90
32334;DHT22;18810;53.040;8.850;2023-11-22T11:28:25;5.80;99.90
32334;DHT22;18810;53.040;8.850;2023-11-22T11:30:53;5.80;99.90
32334;DHT22;18810;53.040;8.850;2023-11-22T11:33:35;5.90;99.90
32334;DHT22;18810;53.040;8.850;2023-11-22T11:36:29;5.90;99.90
32334;DHT22;18810;53.040;8.850;2023-11-22T11:38:58;5.90;99.90
32334;DHT22;18810;53.040;8.850;2023-11-22T11:41:35;5.90;99.90
32334;DHT22;18810;53.040;8.850;2023-11-22T11:44:08;6.20;99.90
32334;DHT22;18810;53.040;8.850;2023-11-22T11:46:38;6.20;99.90
32334;DHT22;18810;53.040;8.850;2023-11-22T11:49:09;6.20;99.90
32334;DHT22;18810;53.040;8.850;2023-11-22T11:51:37;6.40;99.90
32334;DHT22;18810;53.040;8.850;2023-11-22T11:54:03;6.40;99.90
32334;DHT22;18810;53.040;8.850;2023-11-22T11:56:30;6.40;99.90
32334;DHT22;18810;53.040;8.850;2023-11-22T11:58:58;6.40;99.90
32334;DHT22;18810;53.040;8.850;2023-11-22T12:01:28;6.10;99.90
32334;DHT22;18810;53.040;8.850;2023-11-22T12:04:00;6.10;99.90
32334;DHT22;18810;53.040;8.850;2023-11-22T12:06:25;6.10;99.90
32334;DHT22;18810;53.040;8.850;2023-11-22T12:08:51;6.10;99.90
32334;DHT22;18810;53.040;8.850;2023-11-22T12:11:21;6.20;99.90
32334;DHT22;18810;53.040;8.850;2023-11-22T12:13:47;6.30;99.90
32334;DHT22;18810;53.040;8.850;2023-11-22T12:16:16;6.30;99.90
32334;DHT22;18810;53.040;8.850;2023-11-22T12:18:47;6.10;99.90
32334;DHT22;18810;53.040;8.850;2023-11-22T12:21:13;6.20;99.90
32334;DHT22;18810;53.040;8.850;2023-11-22T12:23:40;6.30;99.90
32334;DHT22;18810;53.040;8.850;2023-11-22T12:26:13;6.30;99.90
32334;DHT22;18810;53.040;8.850;2023-11-22T12:28:40;6.20;99.90
32334;DHT22;18810;53.040;8.850;2023-11-22T12:31:11;6.20;99.90
32334;DHT22;18810;53.040;8.850;2023-11-22T12:33:37;6.30;99.90
32334;DHT22;18810;53.040;8.850;2023-11-22T12:36:04;6.30;99.90
32334;DHT22;18810;53.040;8.850;2023-11-22T12:38:30;6.40;99.90
32334;DHT22;18810;53.040;8.850;2023-11-22T12:40:59;6.50;99.90
32334;DHT22;18810;53.040;8.850;2023-11-22T12:43:25;6.40;99.90
32334;DHT22;18810;53.040;8.850;2023-11-22T12:46:07;6.50;99.90
32334;DHT22;18810;53.040;8.850;2023-11-22T12:48:34;6.50;99.90
32334;DHT22;18810;53.040;8.850;2023-11-22T12:51:01;6.40;99.90
32334;DHT22;18810;53.040;8.850;2023-11-22T12:53:27;6.40;99.90
32334;DHT22;18810;53.040;8.850;2023-11-22T12:55:54;6.20;99.90
32334;DHT22;18810;53.040;8.850;2023-11-22T12:58:24;6.10;99.90
32334;DHT22;18810;53.040;8.850;2023-11-22T13:00:51;6.00;99.90
32334;DHT22;18810;53.040;8.850;2023-11-22T13:03:23;6.00;99.90
32334;DHT22;18810;53.040;8.850;2023-11-22T13:05:49;5.80;99.90
32334;DHT22;18810;53.040;8.850;2023-11-22T13:08:18;5.70;99.90
32334;DHT22;18810;53.040;8.850;2023-11-22T13:13:14;5.80;99.90
32334;DHT22;18810;53.040;8.850;2023-11-22T13:15:40;5.90;99.90
32334;DHT22;18810;53.040;8.850;2023-11-22T13:18:06;5.70;99.90
32334;DHT22;18810;53.040;8.850;2023-11-22T13:20:34;5.70;99.90
32334;DHT22;18810;53.040;8.850;2023-11-22T13:23:00;5.90;99.90
32334;DHT22;18810;53.040;8.850;2023-11-22T13:25:28;5.80;99.90
32334;DHT22;18810;53.040;8.850;2023-11-22T13:27:53;5.80;99.90
32334;DHT22;18810;53.040;8.850;2023-11-22T13:30:22;5.70;99.90
32334;DHT22;18810;53.040;8.850;2023-11-22T13:32:54;5.70;99.90
32334;DHT22;18810;53.040;8.850;2023-11-22T13:35:24;5.70;99.90
32334;DHT22;18810;53.040;8.850;2023-11-22T13:37:51;5.70;99.90
32334;DHT22;18810;53.040;8.850;2023-11-22T13:40:19;5.70;99.90
32334;DHT22;18810;53.040;8.850;2023-11-22T13:42:49;5.70;99.90
32334;DHT22;18810;53.040;8.850;2023-11-22T13:45:16;5.50;99.90
32334;DHT22;18810;53.040;8.850;2023-11-22T13:47:49;5.70;99.90
32334;DHT22;18810;53.040;8.850;2023-11-22T13:50:19;5.50;99.90
32334;DHT22;18810;53.040;8.850;2023-11-22T13:52:50;5.50;99.90
32334;DHT22;18810;53.040;8.850;2023-11-22T13:55:17;5.50;99.90
32334;DHT22;18810;53.040;8.850;2023-11-22T13:57:55;5.40;99.90
32334;DHT22;18810;53.040;8.850;2023-11-22T14:00:22;5.40;99.90
32334;DHT22;18810;53.040;8.850;2023-11-22T14:02:51;5.40;99.90
32334;DHT22;18810;53.040;8.850;2023-11-22T14:05:18;5.30;99.90
32334;DHT22;18810;53.040;8.850;2023-11-22T14:07:44;5.40;99.90
32334;DHT22;18810;53.040;8.850;2023-11-22T14:10:11;5.30;99.90
32334;DHT22;18810;53.040;8.850;2023-11-22T14:12:37;5.30;99.90
32334;DHT22;18810;53.040;8.850;2023-11-22T14:15:04;5.30;99.90
32334;DHT22;18810;53.040;8.850;2023-11-22T14:17:30;5.20;99.90
32334;DHT22;18810;53.040;8.850;2023-11-22T14:19:56;5.10;99.90
32334;DHT22;18810;53.040;8.850;2023-11-22T14:22:23;5.10;99.90
32334;DHT22;18810;53.040;8.850;2023-11-22T14:24:52;6.30;99.90
32334;DHT22;18810;53.040;8.850;2023-11-22T14:27:18;5.10;99.90
32334;DHT22;18810;53.040;8.850;2023-11-22T14:29:45;5.10;99.90
32334;DHT22;18810;53.040;8.850;2023-11-22T14:32:14;5.10;99.90
32334;DHT22;18810;53.040;8.850;2023-11-22T14:34:40;5.00;99.90
32334;DHT22;18810;53.040;8.850;2023-11-22T14:37:09;5.00;99.90
32334;DHT22;18810;53.040;8.850;2023-11-22T14:39:35;5.00;99.90
32334;DHT22;18810;53.040;8.850;2023-11-22T14:42:01;4.90;99.90
32334;DHT22;18810;53.040;8.850;2023-11-22T14:44:27;4.90;99.90
32334;DHT22;18810;53.040;8.850;2023-11-22T14:46:52;4.90;99.90
32334;DHT22;18810;53.040;8.850;2023-11-22T14:49:19;5.00;99.90
32334;DHT22;18810;53.040;8.850;2023-11-22T14:51:46;4.90;99.90
32334;DHT22;18810;53.040;8.850;2023-11-22T14:54:12;4.90;99.90
32334;DHT22;18810;53.040;8.850;2023-11-22T14:56:39;4.90;99.90
32334;DHT22;18810;53.040;8.850;2023-11-22T14:59:06;4.90;99.90
32334;DHT22;18810;53.040;8.850;2023-11-22T15:01:32;4.80;99.90
32334;DHT22;18810;53.040;8.850;2023-11-22T15:03:57;4.80;99.90
32334;DHT22;18810;53.040;8.850;2023-11-22T15:06:23;4.80;99.90
32334;DHT22;18810;53.040;8.850;2023-11-22T15:08:49;4.80;99.90
32334;DHT22;18810;53.040;8.850;2023-11-22T15:11:16;4.80;99.90
32334;DHT22;18810;53.040;8.850;2023-11-22T15:13:45;4.70;99.90
32334;DHT22;18810;53.040;8.850;2023-11-22T15:16:10;4.70;99.90
32334;DHT22;18810;53.040;8.850;2023-11-22T15:18:41;4.80;99.90
32334;DHT22;18810;53.040;8.850;2023-11-22T15:21:07;4.70;99.90
32334;DHT22;18810;53.040;8.850;2023-11-22T15:23:33;4.60;99.90
32334;DHT22;18810;53.040;8.850;2023-11-22T15:25:59;4.60;99.90
32334;DHT22;18810;53.040;8.850;2023-11-22T15:28:25;4.60;99.90
32334;DHT22;18810;53.040;8.850;2023-11-22T15:30:54;4.60;99.90
32334;DHT22;18810;53.040;8.850;2023-11-22T15:33:24;4.40;99.90
32334;DHT22;18810;53.040;8.850;2023-11-22T15:35:50;4.40;99.90
32334;DHT22;18810;53.040;8.850;2023-11-22T15:38:15;4.40;99.90
32334;DHT22;18810;53.040;8.850;2023-11-22T15:40:41;4.40;99.90
32334;DHT22;18810;53.040;8.850;2023-11-22T15:43:08;4.40;99.90
32334;DHT22;18810;53.040;8.850;2023-11-22T15:45:34;4.30;99.90
32334;DHT22;18810;53.040;8.850;2023-11-22T15:48:01;4.30;99.90